KSTK/STK METAR and TAF weather

Enter ICAO airport designator
Station Type Date Time Source
KSTK METAR 2021/01/20 23:15 UTC NOAA

KSTK 202315Z AUTO 36006KT 10SM CLR 12/M11 A2990 RMK AO2


Station Type Date Time Source
KSTK Decoded METAR 2021/01/20 23:15 UTC NOAA

Station name not available
Jan 20, 2021 - 06:15 PM EST / 2021.01.20 2315 UTC
Wind: from the N (360 degrees) at 7 MPH (6 KT):0
Visibility: 10 mile(s):0
Sky conditions: clear
Temperature: 53 F (12 C)
Dew Point: 12 F (-11 C)
Relative Humidity: 18%
Pressure (altimeter): 29.9 in. Hg (1012 hPa)
ob: KSTK 202315Z AUTO 36006KT 10SM CLR 12/M11 A2990 RMK AO2
cycle: 23

Station Type Date Time Source
KSTK TAF UTC NOAA

Error!

Example: see airport list